createdAt,value
2023-09-12T00:02:17.923Z,18.58
2023-09-12T00:04:45.441Z,20.35
2023-09-12T00:07:12.688Z,21.83
2023-09-12T00:09:39.943Z,20.15
2023-09-12T00:12:07.263Z,19.08
2023-09-12T00:14:34.462Z,17.73
2023-09-12T00:17:02.065Z,17.42
2023-09-12T00:19:29.163Z,17.45
2023-09-12T00:21:56.755Z,17.42
2023-09-12T00:24:24.089Z,18.85
2023-09-12T00:26:51.386Z,18.65
2023-09-12T00:29:18.464Z,19.63
2023-09-12T00:31:45.564Z,19.90
2023-09-12T00:34:20.361Z,20.02
2023-09-12T00:36:47.671Z,19.98
2023-09-12T00:39:14.694Z,20.02
2023-09-12T00:41:42.094Z,19.67
2023-09-12T00:44:11.601Z,19.70
2023-09-12T00:46:40.209Z,21.80
2023-09-12T00:49:10.180Z,19.75
2023-09-12T00:51:38.684Z,19.42
2023-09-12T00:54:06.504Z,19.10
2023-09-12T00:56:34.514Z,20.80
2023-09-12T00:59:02.963Z,20.52
2023-09-12T01:01:30.546Z,19.98
2023-09-12T01:03:57.943Z,19.40
2023-09-12T01:06:28.592Z,17.55
2023-09-12T01:08:56.875Z,19.40
2023-09-12T01:11:25.398Z,21.50
2023-09-12T01:13:52.450Z,19.17
2023-09-12T01:16:19.745Z,18.75
2023-09-12T01:18:47.530Z,18.52
2023-09-12T01:21:42.848Z,18.92
2023-09-12T01:24:34.066Z,21.48
2023-09-12T01:27:34.109Z,21.20
2023-09-12T01:30:07.195Z,28.63
2023-09-12T01:35:04.819Z,21.40
2023-09-12T01:37:32.997Z,28.27
2023-09-12T01:40:00.563Z,23.17
2023-09-12T01:42:39.742Z,23.00
2023-09-12T01:45:10.203Z,21.77
2023-09-12T01:47:38.327Z,20.98
2023-09-12T01:50:09.663Z,20.30
2023-09-12T01:52:38.445Z,20.60
2023-09-12T01:55:07.934Z,20.27
2023-09-12T01:57:35.641Z,21.35
2023-09-12T02:00:03.078Z,21.55
2023-09-12T02:02:30.686Z,21.35
2023-09-12T02:05:18.405Z,21.77
2023-09-12T02:07:47.777Z,22.23
2023-09-12T02:10:15.577Z,20.95
2023-09-12T02:12:43.188Z,21.48
2023-09-12T02:15:11.615Z,22.05
2023-09-12T02:17:40.331Z,21.13
2023-09-12T02:20:10.357Z,20.75
2023-09-12T02:22:38.451Z,23.63
2023-09-12T02:25:07.569Z,24.05
2023-09-12T02:27:34.737Z,24.48
2023-09-12T02:30:01.868Z,25.88
2023-09-12T02:32:29.201Z,24.73
2023-09-12T02:34:58.301Z,22.58
2023-09-12T02:37:25.729Z,24.33
2023-09-12T02:39:52.897Z,24.35
2023-09-12T02:42:20.203Z,24.30
2023-09-12T02:44:47.323Z,25.40
2023-09-12T02:47:14.477Z,25.95
2023-09-12T02:49:41.799Z,31.13
2023-09-12T02:52:09.132Z,25.23
2023-09-12T02:54:36.350Z,27.33
2023-09-12T02:57:03.956Z,28.00
2023-09-12T02:59:31.839Z,23.45
2023-09-12T03:01:59.613Z,24.88
2023-09-12T03:04:29.739Z,26.08
2023-09-12T03:06:56.990Z,26.48
2023-09-12T03:09:25.475Z,28.52
2023-09-12T03:11:53.302Z,29.67
2023-09-12T03:14:21.524Z,28.40
2023-09-12T03:16:48.703Z,27.98
2023-09-12T03:19:15.841Z,28.70
2023-09-12T03:21:43.140Z,28.65
2023-09-12T03:24:10.456Z,31.15
2023-09-12T03:26:38.076Z,29.30
2023-09-12T03:29:06.205Z,29.30
2023-09-12T03:31:33.505Z,29.80
2023-09-12T03:34:00.851Z,27.52
2023-09-12T03:36:28.577Z,31.13
2023-09-12T03:38:55.834Z,29.75
2023-09-12T03:41:26.999Z,29.90
2023-09-12T03:43:57.356Z,25.65
2023-09-12T03:46:25.924Z,28.50
2023-09-12T03:48:53.126Z,25.40
2023-09-12T03:51:20.370Z,24.50
2023-09-12T03:53:49.034Z,25.35
2023-09-12T03:56:17.280Z,25.75
2023-09-12T03:58:44.793Z,24.80
2023-09-12T04:01:12.166Z,25.38
2023-09-12T04:03:40.358Z,24.42
2023-09-12T04:06:07.509Z,22.98
2023-09-12T04:08:34.723Z,23.77
2023-09-12T04:11:02.088Z,25.42
2023-09-12T04:13:29.210Z,24.15
2023-09-12T04:15:56.584Z,25.02
2023-09-12T04:18:24.266Z,26.85
2023-09-12T04:20:51.694Z,25.83
2023-09-12T04:23:19.183Z,25.58
2023-09-12T04:25:48.031Z,23.92
2023-09-12T04:28:15.124Z,27.60
2023-09-12T04:30:44.361Z,29.92
2023-09-12T04:33:13.924Z,29.77
2023-09-12T04:35:41.264Z,30.77
2023-09-12T04:38:08.544Z,32.25
2023-09-12T04:40:35.849Z,33.38
2023-09-12T04:43:03.627Z,37.15
2023-09-12T04:45:34.063Z,36.28
2023-09-12T04:48:01.334Z,36.08
2023-09-12T04:50:28.855Z,36.85
2023-09-12T04:52:56.440Z,37.30
2023-09-12T04:55:23.515Z,38.00
2023-09-12T04:57:51.499Z,36.88
2023-09-12T05:00:18.530Z,36.78
2023-09-12T05:02:45.609Z,36.65
2023-09-12T05:05:12.797Z,36.78
2023-09-12T05:07:39.944Z,36.90
2023-09-12T05:10:07.903Z,38.55
2023-09-12T05:12:35.060Z,38.05
2023-09-12T05:15:02.110Z,37.10
2023-09-12T05:17:29.125Z,37.60
2023-09-12T05:19:56.267Z,37.40
2023-09-12T05:22:23.455Z,36.08
2023-09-12T05:24:50.956Z,37.67
2023-09-12T05:27:18.269Z,37.72
2023-09-12T05:29:47.535Z,38.97
2023-09-12T05:32:16.983Z,38.33
2023-09-12T05:34:44.448Z,37.08
2023-09-12T05:37:11.702Z,36.50
2023-09-12T05:39:38.769Z,35.08
2023-09-12T05:42:07.038Z,35.25
2023-09-12T05:44:34.493Z,34.55
2023-09-12T05:47:02.384Z,33.88
2023-09-12T05:49:31.920Z,32.42
2023-09-12T05:51:59.274Z,32.08
2023-09-12T05:54:27.012Z,30.80
2023-09-12T05:56:55.127Z,31.95
2023-09-12T05:59:22.274Z,30.90
2023-09-12T06:01:50.205Z,31.13
2023-09-12T06:04:18.241Z,30.88
2023-09-12T06:06:47.348Z,31.30
2023-09-12T06:09:14.600Z,30.92
2023-09-12T06:11:42.057Z,29.88
2023-09-12T06:14:09.835Z,28.95
2023-09-12T06:16:37.198Z,27.55
2023-09-12T06:19:04.268Z,27.92
2023-09-12T06:21:31.689Z,27.88
2023-09-12T06:24:15.664Z,28.35
2023-09-12T06:26:43.624Z,27.15
2023-09-12T06:29:10.744Z,25.83
2023-09-12T06:31:37.954Z,26.60
2023-09-12T06:34:05.414Z,25.75
2023-09-12T06:36:32.879Z,25.88
2023-09-12T06:39:01.402Z,23.77
2023-09-12T06:41:29.461Z,23.70
2023-09-12T06:43:58.346Z,32.58
2023-09-12T06:46:26.569Z,22.80
2023-09-12T06:48:53.592Z,23.98
2023-09-12T06:51:29.406Z,23.80
2023-09-12T06:53:58.286Z,22.70
2023-09-12T06:56:26.083Z,22.50
2023-09-12T06:58:57.283Z,21.33
2023-09-12T07:01:24.503Z,21.02
2023-09-12T07:03:55.252Z,21.13
2023-09-12T07:06:23.063Z,20.08
2023-09-12T07:08:51.456Z,20.05
2023-09-12T07:11:20.476Z,19.35
2023-09-12T07:13:47.839Z,18.77
2023-09-12T07:16:15.201Z,18.75
2023-09-12T07:18:42.880Z,16.85
2023-09-12T07:21:12.436Z,18.55
2023-09-12T07:23:39.570Z,16.70
2023-09-12T07:26:06.883Z,17.25
2023-09-12T07:28:34.205Z,14.32
2023-09-12T07:31:01.364Z,15.10
2023-09-12T07:33:28.598Z,15.23
2023-09-12T07:35:56.769Z,13.63
2023-09-12T07:38:23.926Z,12.82
2023-09-12T07:40:51.778Z,13.40
2023-09-12T07:43:19.366Z,11.00
2023-09-12T07:45:46.621Z,12.27
2023-09-12T07:48:13.973Z,11.65
2023-09-12T07:50:41.203Z,11.70
2023-09-12T08:06:57.911Z,10.23
2023-09-12T08:09:54.799Z,12.00
2023-09-12T08:12:24.843Z,11.18
2023-09-12T08:14:52.321Z,11.88
2023-09-12T08:17:20.573Z,10.60
2023-09-12T08:19:47.802Z,12.20
2023-09-12T08:22:15.933Z,10.77
2023-09-12T08:24:43.232Z,10.85
2023-09-12T08:27:11.389Z,11.10
2023-09-12T08:29:39.590Z,11.35
2023-09-12T08:32:06.824Z,10.32
2023-09-12T08:34:34.300Z,11.75
2023-09-12T08:37:01.490Z,10.73
2023-09-12T08:39:42.276Z,10.55
2023-09-12T08:42:15.234Z,10.88
2023-09-12T08:47:15.235Z,11.10
2023-09-12T08:49:43.862Z,10.65
2023-09-12T08:52:12.110Z,11.70
2023-09-12T08:55:55.636Z,11.32
2023-09-12T08:58:24.434Z,10.63
2023-09-12T09:00:52.847Z,11.75
2023-09-12T09:03:23.110Z,10.20
2023-09-12T09:05:53.335Z,9.93
2023-09-12T09:08:23.835Z,10.80
2023-09-12T09:11:03.745Z,11.07
2023-09-12T09:13:31.334Z,12.82
2023-09-12T09:16:16.430Z,11.90
2023-09-12T09:18:59.389Z,11.00
2023-09-12T09:21:31.541Z,10.95
2023-09-12T09:24:08.776Z,10.27
2023-09-12T09:26:51.391Z,9.73
2023-09-12T09:29:21.606Z,10.18
2023-09-12T09:31:53.188Z,10.30
2023-09-12T09:34:23.160Z,9.40
2023-09-12T09:36:56.373Z,9.82
2023-09-12T09:39:32.134Z,9.65
2023-09-12T09:41:59.415Z,11.15
2023-09-12T09:44:28.540Z,10.43
2023-09-12T09:47:06.925Z,9.40
2023-09-12T09:49:38.342Z,9.10
2023-09-12T09:52:06.695Z,20.73
2023-09-12T09:54:34.484Z,10.65
2023-09-12T09:57:01.547Z,8.98
2023-09-12T09:59:29.584Z,10.32
2023-09-12T10:02:01.408Z,8.75
2023-09-12T10:04:30.534Z,8.48
2023-09-12T10:06:59.728Z,9.82
2023-09-12T10:09:33.412Z,8.40
2023-09-12T10:12:01.061Z,8.02
2023-09-12T10:14:30.741Z,8.13
2023-09-12T10:17:07.899Z,8.48
2023-09-12T10:20:05.114Z,8.20
2023-09-12T10:22:44.937Z,8.18
2023-09-12T10:25:13.636Z,8.68
2023-09-12T10:27:42.115Z,8.60
2023-09-12T10:30:10.946Z,8.80
2023-09-12T10:32:39.427Z,8.93
2023-09-12T10:35:09.567Z,8.70
2023-09-12T10:37:42.149Z,10.63
2023-09-12T10:40:12.318Z,8.25
2023-09-12T10:42:42.224Z,8.82
2023-09-12T10:45:10.708Z,8.30
2023-09-12T10:47:39.830Z,7.40
2023-09-12T10:50:09.437Z,10.13
2023-09-12T10:52:41.169Z,7.88
2023-09-12T10:55:16.534Z,8.27
2023-09-12T10:58:12.123Z,9.38
2023-09-12T11:00:41.500Z,8.88
2023-09-12T11:03:30.753Z,9.00
2023-09-12T11:05:58.027Z,8.65
2023-09-12T11:08:25.592Z,10.93
2023-09-12T11:11:21.064Z,9.55
2023-09-12T11:14:04.527Z,11.70
2023-09-12T11:16:32.353Z,8.35
2023-09-12T11:19:27.378Z,7.93
2023-09-12T11:21:56.680Z,7.53
2023-09-12T11:24:24.035Z,9.60
2023-09-12T11:27:01.635Z,11.90
2023-09-12T11:29:41.061Z,8.38
2023-09-12T11:32:10.534Z,8.68
2023-09-12T11:34:44.475Z,8.52
2023-09-12T11:37:23.348Z,10.13
2023-09-12T11:39:51.791Z,8.48
2023-09-12T11:42:19.198Z,8.60
2023-09-12T11:44:46.391Z,8.82
2023-09-12T11:47:14.345Z,8.80
2023-09-12T11:49:43.316Z,9.18
2023-09-12T11:52:17.726Z,10.60
2023-09-12T11:54:49.315Z,8.32
2023-09-12T11:57:17.752Z,9.05
2023-09-12T11:59:49.720Z,8.25
2023-09-12T12:02:18.580Z,9.60
2023-09-12T12:04:46.339Z,9.75
2023-09-12T12:07:15.051Z,9.75
2023-09-12T12:09:42.799Z,11.00
2023-09-12T12:12:15.506Z,10.40
2023-09-12T12:14:43.458Z,8.60
2023-09-12T12:17:12.894Z,7.90
2023-09-12T12:19:41.051Z,8.50
2023-09-12T12:22:09.206Z,14.00
2023-09-12T12:24:52.538Z,8.93
2023-09-12T12:27:19.848Z,8.65
2023-09-12T12:29:47.222Z,7.93
2023-09-12T12:32:17.762Z,9.02
2023-09-12T12:35:48.123Z,8.18
2023-09-12T12:37:38.879Z,8.30
2023-09-12T12:40:07.626Z,8.80
2023-09-12T12:42:49.965Z,33.67
2023-09-12T12:45:24.958Z,8.18
2023-09-12T12:48:02.619Z,9.30
2023-09-12T12:50:29.724Z,8.05
2023-09-12T12:52:56.842Z,7.60
2023-09-12T12:55:27.627Z,15.77
2023-09-12T12:57:55.173Z,8.50
2023-09-12T13:00:23.014Z,9.40
2023-09-12T13:02:50.369Z,7.80
2023-09-12T13:05:29.974Z,8.32
2023-09-12T13:07:57.106Z,7.78
2023-09-12T13:10:25.024Z,10.90
2023-09-12T13:12:52.443Z,9.32
2023-09-12T13:15:20.223Z,8.85
2023-09-12T13:17:47.602Z,8.32
2023-09-12T13:20:14.958Z,8.18
2023-09-12T13:22:44.458Z,7.78
2023-09-12T13:25:11.800Z,8.95
2023-09-12T13:27:39.098Z,7.75
2023-09-12T13:30:07.443Z,11.65
2023-09-12T13:32:34.528Z,8.15
2023-09-12T13:35:01.688Z,11.40
2023-09-12T13:37:28.869Z,8.63
2023-09-12T13:39:56.329Z,8.13
2023-09-12T13:42:23.726Z,7.93
2023-09-12T13:44:51.572Z,7.55
2023-09-12T13:47:23.459Z,7.90
2023-09-12T13:49:54.853Z,8.40
2023-09-12T13:52:22.975Z,30.88
2023-09-12T13:54:50.856Z,7.68
2023-09-12T13:57:18.649Z,7.75
2023-09-12T13:59:47.016Z,8.20
2023-09-12T14:02:15.160Z,8.10
2023-09-12T14:04:43.744Z,7.90
2023-09-12T14:07:11.465Z,7.68
2023-09-12T14:09:39.130Z,8.18
2023-09-12T14:12:12.738Z,8.15
2023-09-12T14:29:28.446Z,14.02
2023-09-12T14:31:59.092Z,10.95
2023-09-12T14:34:30.037Z,9.95
2023-09-12T14:36:58.266Z,10.57
2023-09-12T14:39:27.209Z,10.40
2023-09-12T14:41:55.802Z,8.63
2023-09-12T14:44:23.456Z,11.50
2023-09-12T14:46:50.987Z,22.52
2023-09-12T14:49:18.417Z,12.70
2023-09-12T14:51:45.783Z,31.30
2023-09-12T14:54:12.970Z,19.42
2023-09-12T14:56:40.084Z,9.55
2023-09-12T14:59:07.912Z,8.60
2023-09-12T15:01:36.138Z,9.45
2023-09-12T15:04:03.576Z,10.90
2023-09-12T15:06:34.379Z,9.68
2023-09-12T15:09:01.930Z,12.40
2023-09-12T15:11:29.309Z,10.68
2023-09-12T15:13:56.319Z,8.73
2023-09-12T15:16:23.725Z,8.80
2023-09-12T15:18:53.160Z,8.60
2023-09-12T15:21:20.631Z,8.23
2023-09-12T15:23:47.825Z,8.07
2023-09-12T15:26:14.895Z,8.60
2023-09-12T15:28:42.187Z,8.43
2023-09-12T15:31:09.428Z,15.55
2023-09-12T15:33:37.045Z,8.48
2023-09-12T15:36:04.360Z,8.52
2023-09-12T15:38:31.409Z,8.60
2023-09-12T15:40:59.864Z,7.95
2023-09-12T15:43:27.954Z,8.65
2023-09-12T15:45:55.258Z,9.23
2023-09-12T15:48:22.491Z,9.55
2023-09-12T15:50:49.732Z,9.77
2023-09-12T15:53:16.974Z,9.43
2023-09-12T15:55:44.718Z,9.10
2023-09-12T15:58:11.941Z,13.75
2023-09-12T16:00:39.197Z,17.23
2023-09-12T16:03:06.746Z,17.02
2023-09-12T16:05:33.798Z,19.80
2023-09-12T16:08:00.967Z,22.45
2023-09-12T16:10:28.062Z,25.50
2023-09-12T16:12:55.152Z,20.20
2023-09-12T16:15:22.564Z,23.98
2023-09-12T16:17:49.842Z,21.85
2023-09-12T16:20:17.106Z,26.05
2023-09-12T16:22:44.320Z,19.60
2023-09-12T16:25:11.315Z,15.77
2023-09-12T16:27:38.453Z,18.13
2023-09-12T16:30:09.914Z,26.25
2023-09-12T16:32:39.595Z,16.15
2023-09-12T16:35:07.775Z,13.35
2023-09-12T16:37:35.293Z,11.32
2023-09-12T16:40:02.893Z,12.35
2023-09-12T16:42:34.493Z,12.60
2023-09-12T16:45:02.132Z,13.18
2023-09-12T16:47:29.281Z,27.52
2023-09-12T16:49:58.833Z,16.23
2023-09-12T16:52:26.146Z,12.73
2023-09-12T16:54:53.489Z,11.45
2023-09-12T16:57:20.641Z,13.00
2023-09-12T16:59:47.726Z,11.60
2023-09-12T17:02:15.581Z,11.60
2023-09-12T17:04:46.104Z,12.15
2023-09-12T17:07:14.868Z,12.15
2023-09-12T17:09:42.383Z,14.85
2023-09-12T17:12:09.931Z,25.05
2023-09-12T17:14:36.961Z,28.17
2023-09-12T17:17:04.365Z,19.98
2023-09-12T17:19:32.084Z,18.27
2023-09-12T17:21:59.217Z,33.08
2023-09-12T17:24:29.210Z,20.08
2023-09-12T17:26:56.609Z,19.58
2023-09-12T17:29:24.377Z,17.92
2023-09-12T17:31:51.622Z,16.95
2023-09-12T17:34:19.532Z,18.40
2023-09-12T17:36:46.657Z,16.75
2023-09-12T17:39:13.797Z,15.45
2023-09-12T17:41:41.039Z,15.45
2023-09-12T17:44:08.345Z,25.55
2023-09-12T17:46:36.010Z,18.55
2023-09-12T17:49:03.601Z,18.08
2023-09-12T17:51:32.118Z,19.20
2023-09-12T17:53:59.293Z,31.13
2023-09-12T17:56:26.406Z,27.35
2023-09-12T17:58:53.542Z,28.50
2023-09-12T18:01:20.800Z,28.45
2023-09-12T18:03:48.409Z,34.85
2023-09-12T18:06:16.181Z,34.65
2023-09-12T18:08:43.280Z,25.77
2023-09-12T18:11:10.310Z,22.27
2023-09-12T18:13:37.532Z,20.90
2023-09-12T18:16:04.736Z,20.65
2023-09-12T18:18:31.837Z,24.17
2023-09-12T18:20:59.352Z,23.98
2023-09-12T18:23:26.740Z,19.17
2023-09-12T18:25:53.848Z,23.63
2023-09-12T18:28:46.135Z,19.13
2023-09-12T18:31:17.426Z,21.30
2023-09-12T18:33:46.648Z,21.63
2023-09-12T18:36:14.380Z,19.98
2023-09-12T18:38:45.109Z,20.08
2023-09-12T18:41:13.387Z,22.73
2023-09-12T18:43:40.535Z,19.60
2023-09-12T18:46:09.508Z,19.23
2023-09-12T18:48:39.228Z,20.17
2023-09-12T18:51:06.787Z,18.55
2023-09-12T18:53:34.155Z,18.02
2023-09-12T18:56:02.982Z,19.83
2023-09-12T18:58:31.631Z,26.15
2023-09-12T19:00:59.271Z,26.48
2023-09-12T19:03:27.525Z,24.15
2023-09-12T19:05:54.972Z,25.35
2023-09-12T19:08:22.109Z,26.25
2023-09-12T19:10:49.800Z,22.05
2023-09-12T19:13:17.066Z,23.85
2023-09-12T19:15:45.365Z,25.48
2023-09-12T19:18:13.308Z,26.73
2023-09-12T19:20:41.685Z,23.25
2023-09-12T19:23:09.677Z,21.80
2023-09-12T19:25:38.768Z,22.35
2023-09-12T19:28:09.263Z,21.52
2023-09-12T19:30:39.945Z,20.35
2023-09-12T19:33:10.120Z,20.27
2023-09-12T19:35:39.824Z,21.27
2023-09-12T19:38:06.940Z,21.63
2023-09-12T19:40:34.627Z,21.80
2023-09-12T19:43:01.989Z,20.55
2023-09-12T19:45:29.164Z,20.58
2023-09-12T19:48:01.370Z,19.83
2023-09-12T19:50:32.450Z,18.77
2023-09-12T19:52:59.743Z,16.48
2023-09-12T19:55:27.130Z,15.80
2023-09-12T19:57:54.692Z,16.77
2023-09-12T20:00:21.886Z,15.40
2023-09-12T20:02:50.499Z,14.98
2023-09-12T20:05:22.767Z,14.32
2023-09-12T20:07:51.687Z,14.53
2023-09-12T20:10:22.357Z,14.52
2023-09-12T20:12:52.653Z,14.98
2023-09-12T20:15:23.376Z,14.45
2023-09-12T20:17:54.223Z,20.08
2023-09-12T20:20:23.060Z,14.55
2023-09-12T20:22:51.169Z,15.32
2023-09-12T20:25:20.532Z,20.13
2023-09-12T20:27:48.333Z,16.88
2023-09-12T20:30:16.727Z,15.50
2023-09-12T20:32:57.561Z,15.82
2023-09-12T20:35:28.135Z,15.10
2023-09-12T20:37:58.948Z,16.25
2023-09-12T20:40:29.560Z,15.35
2023-09-12T20:42:57.330Z,17.05
2023-09-12T20:45:24.716Z,17.83
2023-09-12T20:50:47.561Z,18.63
2023-09-12T20:53:18.130Z,18.58
2023-09-12T20:55:45.711Z,16.02
2023-09-12T20:58:13.420Z,17.30
2023-09-12T21:00:42.526Z,17.67
2023-09-12T21:03:09.981Z,18.20
2023-09-12T21:05:37.446Z,18.17
2023-09-12T21:08:04.888Z,16.85
2023-09-12T21:10:31.988Z,17.55
2023-09-12T21:13:00.717Z,21.48
2023-09-12T21:15:28.727Z,19.30
2023-09-12T21:17:55.775Z,19.15
2023-09-12T21:20:22.791Z,19.67
2023-09-12T21:22:49.838Z,19.52
2023-09-12T21:25:17.650Z,18.90
2023-09-12T21:27:44.669Z,19.02
2023-09-12T21:30:13.623Z,18.60
2023-09-12T21:32:40.755Z,19.33
2023-09-12T21:35:09.919Z,19.92
2023-09-12T21:37:37.196Z,20.45
2023-09-12T21:40:04.944Z,19.02
2023-09-12T21:42:31.970Z,18.63
2023-09-12T21:44:59.227Z,20.20
2023-09-12T21:47:26.270Z,19.30
2023-09-12T21:49:53.542Z,21.83
2023-09-12T21:52:20.557Z,19.65
2023-09-12T21:54:47.724Z,20.10
2023-09-12T21:57:14.731Z,20.88
2023-09-12T21:59:42.935Z,20.05
2023-09-12T22:02:10.065Z,20.65
2023-09-12T22:04:37.191Z,20.73
2023-09-12T22:07:04.623Z,20.50
2023-09-12T22:09:32.607Z,19.65
2023-09-12T22:11:59.829Z,18.92
2023-09-12T22:14:26.842Z,19.15
2023-09-12T22:16:57.098Z,18.45
2023-09-12T22:19:24.252Z,19.50
2023-09-12T22:21:51.420Z,18.95
2023-09-12T22:24:18.452Z,18.58
2023-09-12T22:26:45.547Z,20.20
2023-09-12T22:29:12.607Z,19.55
2023-09-12T22:31:39.833Z,19.48
2023-09-12T22:34:07.066Z,20.20
2023-09-12T22:36:34.124Z,19.85
2023-09-12T22:39:01.365Z,20.35
2023-09-12T22:41:29.680Z,19.55
2023-09-12T22:43:56.791Z,20.58
2023-09-12T22:46:23.844Z,21.58
2023-09-12T22:48:50.956Z,21.77
2023-09-12T22:51:18.268Z,20.48
2023-09-12T22:53:45.619Z,20.63
2023-09-12T22:56:12.757Z,20.08
2023-09-12T22:58:39.950Z,20.38
2023-09-12T23:01:08.699Z,21.58
2023-09-12T23:03:36.169Z,20.50
2023-09-12T23:06:04.073Z,20.60
2023-09-12T23:08:31.233Z,19.65
2023-09-12T23:10:58.369Z,21.38
2023-09-12T23:13:25.538Z,22.33
2023-09-12T23:15:54.104Z,24.17
2023-09-12T23:18:21.951Z,21.48
2023-09-12T23:20:49.144Z,23.05
2023-09-12T23:23:16.161Z,21.92
2023-09-12T23:25:46.164Z,22.85
2023-09-12T23:28:13.484Z,21.58
2023-09-12T23:30:41.890Z,21.08
2023-09-12T23:33:09.236Z,21.58
2023-09-12T23:35:36.414Z,20.95
2023-09-12T23:38:03.989Z,21.23
2023-09-12T23:40:31.003Z,22.05
2023-09-12T23:42:58.477Z,22.50
2023-09-12T23:45:25.661Z,21.92
2023-09-12T23:47:53.336Z,22.48
2023-09-12T23:50:20.590Z,22.83
2023-09-12T23:52:47.726Z,22.33
2023-09-12T23:55:15.291Z,22.35
2023-09-12T23:57:42.591Z,21.63
